地図

経路データ

SID SEASON NUMBER BASIN SUBBASIN NAME ISO_TIME NATURE LAT LON WMO_WIND WMO_PRES WMO_AGENCY TRACK_TYPE DIST2LAND LANDFALL IFLAG USA_AGENCY USA_ATCF_ID USA_LAT USA_LON USA_RECORD USA_STATUS USA_WIND USA_PRES USA_SSHS USA_R34_NE USA_R34_SE USA_R34_SW USA_R34_NW USA_R50_NE USA_R50_SE USA_R50_SW USA_R50_NW USA_R64_NE USA_R64_SE USA_R64_SW USA_R64_NW USA_POCI USA_ROCI USA_RMW USA_EYE TOKYO_LAT TOKYO_LON TOKYO_GRADE TOKYO_WIND TOKYO_PRES TOKYO_R50_DIR TOKYO_R50_LONG TOKYO_R50_SHORT TOKYO_R30_DIR TOKYO_R30_LONG TOKYO_R30_SHORT TOKYO_LAND CMA_LAT CMA_LON CMA_CAT CMA_WIND CMA_PRES HKO_LAT HKO_LON HKO_CAT HKO_WIND HKO_PRES NEWDELHI_LAT NEWDELHI_LON NEWDELHI_GRADE NEWDELHI_WIND NEWDELHI_PRES NEWDELHI_CI NEWDELHI_DP NEWDELHI_POCI REUNION_LAT REUNION_LON REUNION_TYPE REUNION_WIND REUNION_PRES REUNION_TNUM REUNION_CI REUNION_RMW REUNION_R34_NE REUNION_R34_SE REUNION_R34_SW REUNION_R34_NW REUNION_R50_NE REUNION_R50_SE REUNION_R50_SW REUNION_R50_NW REUNION_R64_NE REUNION_R64_SE REUNION_R64_SW REUNION_R64_NW BOM_LAT BOM_LON BOM_TYPE BOM_WIND BOM_PRES BOM_TNUM BOM_CI BOM_RMW BOM_R34_NE BOM_R34_SE BOM_R34_SW BOM_R34_NW BOM_R50_NE BOM_R50_SE BOM_R50_SW BOM_R50_NW BOM_R64_NE BOM_R64_SE BOM_R64_SW BOM_R64_NW BOM_ROCI BOM_POCI BOM_EYE BOM_POS_METHOD BOM_PRES_METHOD NADI_LAT NADI_LON NADI_CAT NADI_WIND NADI_PRES WELLINGTON_LAT WELLINGTON_LON WELLINGTON_WIND WELLINGTON_PRES DS824_LAT DS824_LON DS824_STAGE DS824_WIND DS824_PRES TD9636_LAT TD9636_LON TD9636_STAGE TD9636_WIND TD9636_PRES TD9635_LAT TD9635_LON TD9635_WIND TD9635_PRES TD9635_ROCI NEUMANN_LAT NEUMANN_LON NEUMANN_CLASS NEUMANN_WIND NEUMANN_PRES MLC_LAT MLC_LON MLC_CLASS MLC_WIND MLC_PRES USA_GUST BOM_GUST BOM_GUST_PER REUNION_GUST REUNION_GUST_PER USA_SEAHGT USA_SEARAD_NE USA_SEARAD_SE USA_SEARAD_SW USA_SEARAD_NW STORM_SPEED STORM_DIR
1993360S04171 1994 99 SP MM REWA 1993-12-26 06:00:00 TS -3.90000 170.900 main 1215 1215 O___________O_ jtwc_sh SH051994 -3.90000 170.900 15 -1 -3.90000 170.900 TC 15 8 129
1993360S04171 1994 99 SP MM REWA 1993-12-26 09:00:00 TS -4.14752 171.202 main 1229 1222 P___________P_ SH051994 -4.14752 171.202 17 -1 -4.14752 171.202 TC 17 8 130
1993360S04171 1994 99 SP MM REWA 1993-12-26 12:00:00 TS -4.40000 171.500 main 1235 1235 O___________O_ jtwc_sh SH051994 -4.40000 171.500 20 -1 -4.40000 171.500 TC 20 8 132
1993360S04171 1994 99 SP MM REWA 1993-12-26 15:00:00 TS -4.67001 171.780 main 1244 1236 P___________P_ SH051994 -4.67001 171.780 20 -1 -4.67001 171.780 TC 20 8 140
1993360S04171 1994 99 SP MM REWA 1993-12-26 18:00:00 TS -5.00000 172.000 main 1236 1203 O___________O_ jtwc_sh SH051994 -5.00000 172.000 20 -1 -5.00000 172.000 TC 20 8 154
1993360S04171 1994 99 SP MM REWA 1993-12-26 21:00:00 TS -5.41999 172.152 main 1208 1160 P___________P_ SH051994 -5.41999 172.152 20 -1 -5.41999 172.152 TC 20 9 168
1993360S04171 1994 99 SP MM REWA 1993-12-27 00:00:00 TS -5.90000 172.200 main 1160 1112 O___________O_ jtwc_sh SH051994 -5.90000 172.200 20 -1 -5.90000 172.200 TC 20 10 178
1993360S04171 1994 99 SP MM REWA 1993-12-27 03:00:00 TS -6.39998 172.152 main 1112 1053 P___________P_ SH051994 -6.39998 172.152 22 -1 -6.39998 172.152 TC 22 10 191
1993360S04171 1994 99 SP MM REWA 1993-12-27 06:00:00 TS -6.90000 172.000 main 1053 1003 O___________O_ jtwc_sh SH051994 -6.90000 172.000 25 -1 -6.90000 172.000 TC 25 10 200
1993360S04171 1994 99 SP MM REWA 1993-12-27 09:00:00 TS -7.37244 171.802 main 993 938 P___________P_ SH051994 -7.37244 171.802 25 -1 -7.37244 171.802 TC 25 10 209
1993360S04171 1994 99 SP MM REWA 1993-12-27 12:00:00 TS -7.80000 171.500 main 938 877 O___________O_ jtwc_sh SH051994 -7.80000 171.500 25 -1 -7.80000 171.500 TC 25 11 220
1993360S04171 1994 99 SP MM REWA 1993-12-27 15:00:00 TS -8.17991 171.110 main 877 819 P___________P_ SH051994 -8.17991 171.110 27 -1 -8.17991 171.110 TC 27 11 232
1993360S04171 1994 99 SP MM REWA 1993-12-27 18:00:00 TS -8.50000 170.600 main 819 757 O___________O_ jtwc_sh SH051994 -8.50000 170.600 30 -1 -8.50000 170.600 TC 30 13 242
1993360S04171 1994 99 SP MM REWA 1993-12-27 21:00:00 TS -8.77244 169.995 main 757 702 P___________P_ SH051994 -8.77244 169.995 30 -1 -8.77244 169.995 TC 30 14 249
1993360S04171 1994 99 SP MM REWA 1993-12-28 00:00:00 TS -9.00000 169.300 main 702 653 O___________O_ jtwc_sh SH051994 -9.00000 169.300 30 -1 -9.00000 169.300 TC 30 15 253
1993360S04171 1994 99 SP MM REWA 1993-12-28 03:00:00 TS -9.20733 168.580 main 653 598 P___________P_ SH051994 -9.20733 168.580 30 -1 -9.20733 168.580 TC 30 17 258
1993360S04171 1994 99 SP MM REWA 1993-12-28 06:00:00 TS -9.37000 167.590 25 997 bom main 598 511 O_____O_O___O_ jtwc_sh SH051994 -9.40000 167.800 30 -1 -9.50000 165.500 20 25 997 2.00000 -9.00000 168.000 25 1000 -9.40000 167.800 TC 30 18 259
1993360S04171 1994 99 SP MM REWA 1993-12-28 09:00:00 TS -9.54320 166.756 main 511 420 P_____P_P___P_ SH051994 -9.59990 166.965 32 -1 -9.65469 165.362 20 27 996 -9.20493 167.312 27 998 -9.59990 166.965 TC 32 17 257
1993360S04171 1994 99 SP MM REWA 1993-12-28 12:00:00 TS -9.73571 165.950 30 995 bom main 420 319 O_____O_O___O_ jtwc_sh SH051994 -9.80000 166.100 35 0 -9.80000 165.000 20 30 995 2.50000 -9.50000 166.500 30 997 -9.80000 166.100 TC 35 17 256
1993360S04171 1994 99 SP MM REWA 1993-12-28 15:00:00 TS -9.96133 165.072 main 316 215 P_____P_P___P_ SH051994 -9.99978 165.250 37 0 -9.92294 164.288 20 32 995 -9.92282 165.501 32 996 -9.99978 165.250 TC 37 18 256
1993360S04171 1994 99 SP MM REWA 1993-12-28 18:00:00 TS -10.1750 164.200 35 995 bom main 215 138 O_____O_O___O_ jtwc_sh SH051994 -10.2000 164.400 40 0 -10.0000 163.500 30 35 995 3.00000 187 -10.3000 164.500 35 995 -10.2000 164.400 TC 40 17 257
1993360S04171 1994 99 SP MM REWA 1993-12-28 21:00:00 TS -10.3429 163.429 main 128 64 P_____P_P___P_ SH051994 -10.4074 163.535 40 0 -10.0448 162.933 30 37 995 187 -10.5120 163.713 37 992 -10.4074 163.535 TC 40 15 260
1993360S04171 1994 99 SP MM REWA 1993-12-29 00:00:00 TS -10.4250 162.725 40 995 bom main 55 15 O_____O_O___O_ jtwc_sh SH051994 -10.6000 162.700 40 0 -10.0000 162.500 30 40 995 3.00000 187 -10.5000 163.000 40 990 -10.6000 162.700 TC 40 13 269
1993360S04171 1994 99 SP MM REWA 1993-12-29 03:00:00 TS -10.3586 162.074 main 15 0 P_____P_P___P_ SH051994 -10.7648 161.927 42 0 -9.75465 162.230 30 40 995 200 -10.1501 162.212 40 990 -10.7648 161.927 TC 42 13 276
1993360S04171 1994 99 SP MM REWA 1993-12-29 06:00:00 TS -10.3000 161.450 40 995 bom main 0 0 O_____O_O___O_ jtwc_sh SH051994 -10.9000 161.200 45 0 -9.60000 161.900 30 40 995 3.00000 214 -9.80000 161.500 40 990 -10.9000 161.200 TC 45 13 268
1993360S04171 1994 99 SP MM REWA 1993-12-29 09:00:00 TS -10.4124 160.806 main 55 55 P_____P_P___P_ SH051994 -11.0074 160.477 45 0 -9.82511 161.268 30 40 992 214 -9.80955 161.000 40 990 -11.0074 160.477 TC 45 13 257
1993360S04171 1994 99 SP MM REWA 1993-12-29 12:00:00 TS -10.6000 160.150 40 990 bom main 89 89 O_____O_O___O_ jtwc_sh SH051994 -11.1000 159.800 45 0 -10.2000 160.500 30 40 990 3.00000 214 -10.0000 160.500 40 990 -11.1000 159.800 TC 45 14 254
1993360S04171 1994 99 SP EA REWA 1993-12-29 15:00:00 TS -10.7855 159.475 main 116 116 P_____P_P___P_ SH051994 -11.2073 159.178 47 0 -10.5149 159.757 30 45 987 241 -10.2126 159.787 42 988 -11.2073 159.178 TC 47 14 254
1993360S04171 1994 99 SP EA REWA 1993-12-29 18:00:00 TS -10.9750 158.800 50 985 bom main 173 173 O_____O_O___O_ jtwc_sh SH051994 -11.3000 158.600 50 0 -10.8000 159.000 30 50 985 3.50000 268 -10.5000 159.000 45 987 -11.3000 158.600 TC 50 14 254
1993360S04171 1994 99 SP EA REWA 1993-12-29 21:00:00 TS -11.1504 158.150 main 243 243 P_____P_P___P_ SH051994 -11.3574 158.035 52 0 -11.0222 158.265 30 52 982 268 -10.8647 158.265 47 986 -11.3574 158.035 TC 52 13 256
1993360S04171 1994 99 SP EA REWA 1993-12-30 00:00:00 TS -11.3000 157.500 55 980 bom main 302 302 O_____O_O___O_ jtwc_sh SH051994 -11.4000 157.500 55 0 -11.2000 157.500 30 55 980 4.00000 268 -11.2000 157.500 50 985 -11.4000 157.500 TC 55 14 259
1993360S04171 1994 99 SP EA REWA 1993-12-30 03:00:00 TS -11.4189 156.791 main 332 332 P_____P_P___P_ SH051994 -11.4424 156.992 57 0 -11.3804 156.590 30 57 977 268 -11.4104 156.590 55 980 -11.4424 156.992 TC 57 13 261
1993360S04171 1994 99 SP EA REWA 1993-12-30 06:00:00 TS -11.5000 156.150 60 975 bom main 369 374 O_____O_O___O_ jtwc_sh SH051994 -11.5000 156.500 60 0 -11.5000 155.800 30 60 975 4.00000 268 -11.5000 155.800 60 975 -11.5000 156.500 TC 60 11 264
1993360S04171 1994 99 SP EA REWA 1993-12-30 09:00:00 TS -11.5391 155.680 main 394 394 P_____P_P___P_ SH051994 -11.5925 155.993 62 0 -11.5146 155.367 30 60 975 241 -11.4571 155.367 60 975 -11.5925 155.993 TC 62 8 265
1993360S04171 1994 99 SP EA REWA 1993-12-30 12:00:00 TS -11.5750 155.300 60 975 bom main 424 424 O_____O_O___O_ jtwc_sh SH051994 -11.7000 155.500 65 1 -11.5000 155.100 30 60 975 4.00000 214 -11.4000 155.100 60 975 -11.7000 155.500 TC 65 8 262
1993360S04171 1994 99 SP EA REWA 1993-12-30 15:00:00 TS -11.6418 154.917 main 447 443 P_____P_P___P_ SH051994 -11.8000 155.027 67 1 -11.5049 154.815 30 60 975 214 -11.4624 154.800 60 975 -11.8000 155.027 TC 67 8 257
1993360S04171 1994 99 SP EA REWA 1993-12-30 18:00:00 TS -11.7500 154.550 60 975 bom main 443 408 O_____O_O___O_ jtwc_sh SH051994 -11.9000 154.600 70 1 -11.6000 154.500 30 60 975 4.00000 214 -11.6000 154.500 60 975 -11.9000 154.600 TC 70 8 249
1993360S04171 1994 99 SP EA REWA 1993-12-30 21:00:00 TS -11.9194 154.160 main 408 377 P_____P_P___P_ SH051994 -11.9924 154.220 72 1 -11.9001 154.043 30 60 975 214 -11.7925 154.158 60 975 -11.9924 154.220 TC 72 8 244
1993360S04171 1994 99 SP EA REWA 1993-12-31 00:00:00 TS -12.1000 153.800 60 975 bom main 377 354 O_____O_O___O_ jtwc_sh SH051994 -12.1000 153.900 75 1 -12.2000 153.600 30 60 975 4.00000 214 -12.0000 153.800 60 975 -12.1000 153.900 TC 75 7 245
1993360S04171 1994 99 SP EA REWA 1993-12-31 03:00:00 TS -12.2251 153.481 main 354 341 P_____P_P___P_ SH051994 -12.2350 153.620 75 1 -12.2724 153.237 30 62 972 214 -12.1581 153.445 62 972 -12.2350 153.620 TC 75 6 245
1993360S04171 1994 99 SP EA REWA 1993-12-31 06:00:00 TS -12.3500 153.250 65 970 bom main 341 337 O_____O_O___O_ jtwc_sh SH051994 -12.4000 153.400 75 1 -12.3000 153.100 40 65 970 4.50000 214 -12.3000 153.100 65 970 -12.4000 153.400 TC 75 5 231
1993360S04171 1994 99 SP EA REWA 1993-12-31 09:00:00 TS -12.5087 153.116 main 337 337 P_____P_P___P_ SH051994 -12.5925 153.220 75 1 -12.4277 153.355 40 65 967 227 -12.4221 152.669 65 970 -12.5925 153.220 TC 75 4 211
1993360S04171 1994 99 SP EA REWA 1993-12-31 12:00:00 TS -12.6860 153.039 65 965 bom main 343 343 O_____O_P___O_ jtwc_sh SH051994 -12.8000 153.100 75 1 -12.6000 153.700 40 65 965 4.50000 241 -12.5440 152.257 65 970 -12.8000 153.100 TC 75 4 201
1993360S04171 1994 99 SP EA REWA 1993-12-31 15:00:00 TS -12.8696 152.969 main 359 351 P_____P_P___P_ SH051994 -13.0000 153.027 77 1 -12.7848 153.855 40 67 965 241 -12.6938 151.966 65 970 -13.0000 153.027 TC 77 4 196
1993360S04171 1994 99 SP EA REWA 1993-12-31 18:00:00 TS -13.0750 152.925 70 965 bom main 368 368 O_____O_O___O_ jtwc_sh SH051994 -13.2000 153.000 80 1 -13.0000 153.800 40 70 965 4.50000 241 -12.9000 151.900 65 970 -13.2000 153.000 TC 80 5 191
1993360S04171 1994 99 SP EA REWA 1993-12-31 21:00:00 TS -13.3091 152.882 main 385 385 P_____P_P___P_ SH051994 -13.4000 152.985 80 1 -13.2428 153.408 40 70 965 241 -13.1935 152.149 65 970 -13.4000 152.985 TC 80 5 186
1993360S04171 1994 99 SP EA REWA 1994-01-01 00:00:00 TS -13.5500 152.875 70 965 bom main 403 403 O_____O_O___O_ jtwc_sh SH051994 -13.6000 153.000 80 1 -13.5000 153.000 40 70 965 4.50000 241 -13.5000 152.500 65 970 -13.6000 153.000 TC 80 5 171
1993360S04171 1994 99 SP EA REWA 1994-01-01 03:00:00 TS -13.7712 152.959 main 436 436 P_____P_P___P_ SH051994 -13.7925 153.043 80 1 -13.7424 152.947 40 72 965 241 -13.7575 152.802 65 970 -13.7925 153.043 TC 80 5 160
1993360S04171 1994 99 SP EA REWA 1994-01-01 06:00:00 TS -14.0000 153.050 75 965 bom main 461 461 O_____O_O___O_ jtwc_sh SH051994 -14.0000 153.100 80 1 -14.0000 153.000 40 75 965 4.50000 241 -14.0000 153.000 65 970 -14.0000 153.100 TC 80 5 169
1993360S04171 1994 99 SP EA REWA 1994-01-01 09:00:00 TS -14.2606 153.056 main 489 489 P_____P_P___P_ SH051994 -14.2425 153.150 82 1 -14.3075 152.943 40 75 960 241 -14.2500 152.980 65 970 -14.2425 153.150 TC 82 5 0
1993360S04171 1994 99 SP EA REWA 1994-01-01 12:00:00 TS -14.5250 153.050 75 955 bom main 508 503 O_____O_O___O_ jtwc_sh SH051994 -14.5000 153.200 85 2 -14.6000 152.900 40 75 955 4.50000 241 -14.5000 152.900 65 970 -14.5000 153.200 TC 85 5 0
1993360S04171 1994 99 SP EA REWA 1994-01-01 15:00:00 TS -14.7644 153.078 main 537 537 P_____P_P___P_ SH051994 -14.7500 153.250 87 2 -14.8075 152.905 40 80 947 241 -14.7500 152.905 65 970 -14.7500 153.250 TC 87 5 169
1993360S04171 1994 99 SP EA REWA 1994-01-01 18:00:00 TS -15.0000 153.150 85 940 bom main 562 557 O_____O_O___O_ jtwc_sh SH051994 -15.0000 153.300 90 2 -15.0000 153.000 40 85 940 5.00000 241 -15.0000 153.000 65 970 -15.0000 153.300 TC 90 5 156
1993360S04171 1994 99 SP EA REWA 1994-01-01 21:00:00 TS -15.2407 153.298 main 587 587 P_____P_P___P_ SH051994 -15.2350 153.343 95 2 -15.2426 153.250 40 90 935 241 -15.2501 153.257 67 967 -15.2350 153.343 TC 95 6 150
1993360S04171 1994 99 SP EA REWA 1994-01-02 00:00:00 TS -15.5000 153.450 95 930 bom main 626 626 O_____O_O___O_ jtwc_sh SH051994 -15.5000 153.400 100 3 -15.5000 153.500 40 95 930 5.50000 241 -15.5000 153.500 70 965 -15.5000 153.400 TC 100 6 158
1993360S04171 1994 99 SP EA REWA 1994-01-02 03:00:00 TS -15.7737 153.515 main 656 656 P_____P_P___P_ SH051994 -15.8275 153.492 107 3 -15.7199 153.565 40 102 927 268 -15.7199 153.508 75 960 -15.8275 153.492 TC 107 6 169
1993360S04171 1994 99 SP EA REWA 1994-01-02 06:00:00 TS -16.1000 153.575 110 925 bom main 691 669 O_____O_O___O_ jtwc_sh SH051994 -16.2000 153.600 115 4 -16.0000 153.600 40 110 925 6.50000 295 -16.0000 153.500 80 955 -16.2000 153.600 TC 115 8 166
1993360S04171 1994 99 SP EA REWA 1994-01-02 09:00:00 TS -16.5025 153.707 main 669 649 P_____P_P___P_ SH051994 -16.5850 153.700 117 4 -16.4200 153.742 40 110 922 308 -16.4201 153.685 85 947 -16.5850 153.700 TC 117 9 163
1993360S04171 1994 99 SP EA REWA 1994-01-02 12:00:00 TS -16.9500 153.850 110 920 bom main 658 633 O_____O_O___O_ jtwc_sh SH051994 -17.0000 153.800 120 4 -16.9000 153.900 40 110 920 6.50000 322 -16.9000 153.900 90 940 -17.0000 153.800 TC 120 9 165
1993360S04171 1994 99 SP EA REWA 1994-01-02 15:00:00 TS -17.3962 153.959 main 636 613 P_____P_P___P_ SH051994 -17.4425 153.900 122 4 -17.3500 154.015 40 110 920 308 -17.3500 154.023 92 935 -17.4425 153.900 TC 122 9 168
1993360S04171 1994 99 SP EA REWA 1994-01-02 18:00:00 TS -17.8500 154.050 110 920 bom main 623 579 O_____O_O___O_ jtwc_sh SH051994 -17.9000 154.000 125 4 -17.8000 154.100 40 110 920 6.50000 295 -17.8000 154.100 95 930 -17.9000 154.000 TC 125 9 171
1993360S04171 1994 99 SP EA REWA 1994-01-02 21:00:00 TS -18.3093 154.108 main 579 551 P_____P_P___P_ SH051994 -18.3574 154.078 125 4 -18.2575 154.135 40 110 920 295 -18.2650 154.143 95 930 -18.3574 154.078 TC 125 9 171
1993360S04171 1994 99 SP EA REWA 1994-01-03 00:00:00 TS -18.7500 154.200 110 920 bom main 551 525 O_____O_O___O_ jtwc_sh SH051994 -18.8000 154.200 125 4 -18.7000 154.200 40 110 920 6.50000 295 -18.7000 154.200 95 930 -18.8000 154.200 TC 125 9 163
1993360S04171 1994 99 SP EA REWA 1994-01-03 03:00:00 TS -19.1525 154.381 main 525 517 P_____P_P___P_ SH051994 -19.2075 154.413 122 4 -19.1300 154.377 40 105 922 295 -19.0650 154.320 95 930 -19.2075 154.413 TC 122 9 153
1993360S04171 1994 99 SP EA REWA 1994-01-03 06:00:00 TS -19.5250 154.625 100 925 bom main 517 511 O_____O_O___O_ jtwc_sh SH051994 -19.6000 154.700 120 4 -19.5000 154.600 40 100 925 6.00000 295 -19.4000 154.500 95 930 -19.6000 154.700 TC 120 9 148
1993360S04171 1994 99 SP EA REWA 1994-01-03 09:00:00 TS -19.8860 154.866 main 514 508 P_____P_P___P_ SH051994 -20.0149 155.020 117 4 -19.7571 154.741 40 95 927 295 -19.7572 154.683 92 935 -20.0149 155.020 TC 117 9 142
1993360S04171 1994 99 SP EA REWA 1994-01-03 12:00:00 TS -20.2250 155.200 90 930 bom main 523 517 O_____O_O___O_ jtwc_sh SH051994 -20.4000 155.400 115 4 -20.0000 155.000 40 90 930 5.50000 295 -20.1000 155.000 90 940 -20.4000 155.400 TC 115 10 131
1993360S04171 1994 99 SP EA REWA 1994-01-03 15:00:00 TS -20.5488 155.678 main 540 530 P_____P_P___P_ SH051994 -20.7224 155.820 112 3 -20.3427 155.532 40 90 935 268 -20.4076 155.540 90 940 -20.7224 155.820 TC 112 12 122
1993360S04171 1994 99 SP EA REWA 1994-01-03 18:00:00 TS -20.8500 156.250 90 940 bom main 542 530 O_____O_O___O_ jtwc_sh SH051994 -21.0000 156.300 110 3 -20.7000 156.200 40 90 940 5.50000 241 -20.7000 156.200 90 940 -21.0000 156.300 TC 110 12 119
1993360S04171 1994 99 SP EA REWA 1994-01-03 21:00:00 TS -21.1472 156.822 main 547 545 P_____P_P___P_ SH051994 -21.2721 156.805 107 3 -21.0222 156.835 40 87 942 214 -21.0223 156.842 87 942 -21.2721 156.805 TC 107 12 116
1993360S04171 1994 99 SP EA REWA 1994-01-04 00:00:00 TS -21.4000 157.450 85 945 bom main 573 573 O_____O_O___O_ jtwc_sh SH051994 -21.5000 157.400 105 3 -21.3000 157.500 40 85 945 5.00000 187 -21.3000 157.500 85 945 -21.5000 157.400 TC 105 13 110
1993360S04171 1994 99 SP EA REWA 1994-01-04 03:00:00 TS -21.5903 158.127 main 606 561 P_____P_P___P_ SH051994 -21.6723 158.105 102 3 -21.5371 158.178 40 85 947 173 -21.4794 158.120 85 945 -21.6723 158.105 TC 102 14 104
1993360S04171 1994 99 SP EA REWA 1994-01-04 06:00:00 TS -21.7250 158.875 85 950 bom main 551 476 O_____O_O___O_ jtwc_sh SH051994 -21.8000 158.900 100 3 -21.7000 158.900 40 85 950 5.00000 160 -21.6000 158.800 85 945 -21.8000 158.900 TC 100 15 99
1993360S04171 1994 99 SP EA REWA 1994-01-04 09:00:00 TS -21.8312 159.703 main 476 404 P_____P_P___P_ SH051994 -21.9149 159.743 97 3 -21.7799 159.693 40 82 950 133 -21.7152 159.635 82 950 -21.9149 159.743 TC 97 16 96
1993360S04171 1994 99 SP MM REWA 1994-01-04 12:00:00 TS -21.9000 160.550 80 950 bom main 395 332 O_____O_O___O_ jtwc_sh SH051994 -22.0000 160.600 95 2 -21.8000 160.500 40 80 950 5.00000 106 -21.8000 160.500 80 955 -22.0000 160.600 TC 95 15 94
1993360S04171 1994 99 SP MM REWA 1994-01-04 15:00:00 TS -21.9486 161.361 main 323 273 P_____P_P___P_ SH051994 -22.0721 161.415 90 2 -21.7925 161.295 40 77 952 119 -21.8575 161.318 77 957 -22.0721 161.415 TC 90 14 93
1993360S04171 1994 99 SP MM REWA 1994-01-04 18:00:00 TS -21.9750 162.100 75 955 bom main 273 221 O_____O_O___O_ jtwc_sh SH051994 -22.1000 162.200 85 2 -21.8000 162.000 40 75 955 4.50000 133 -21.9000 162.000 75 960 -22.1000 162.200 TC 85 13 92
1993360S04171 1994 99 SP MM REWA 1994-01-04 21:00:00 TS -21.9888 162.719 main 221 175 P_____P_P___P_ SH051994 -22.0497 162.973 80 1 -21.8993 162.522 40 72 960 146 -21.9565 162.408 72 962 -22.0497 162.973 TC 80 11 91
1993360S04171 1994 99 SP MM REWA 1994-01-05 00:00:00 TS -22.0000 163.300 70 965 bom main 175 123 O_____O_O___O_ jtwc_sh SH051994 -22.0000 163.700 75 1 -22.0000 163.000 40 70 965 4.50000 160 -22.0000 162.800 70 965 -22.0000 163.700 TC 75 12 92
1993360S04171 1994 99 SP MM REWA 1994-01-05 03:00:00 TS -22.0270 163.967 main 114 73 P_____P_P___P_ SH051994 -22.0423 164.387 70 1 -22.0152 163.608 40 67 970 187 -22.0080 163.485 67 967 -22.0423 164.387 TC 70 12 92
1993360S04171 1994 99 SP MM REWA 1994-01-05 06:00:00 TS -22.0500 164.600 65 975 bom main 73 59 O_____O_O___O_ jtwc_sh SH051994 -22.1000 165.000 65 1 -22.0000 164.200 40 65 975 4.50000 214 -22.0000 164.200 65 970 -22.1000 165.000 TC 65 11 92
1993360S04171 1994 99 SP MM REWA 1994-01-05 09:00:00 TS -22.0627 165.106 main 59 38 P_____P_P___P_ SH051994 -22.1147 165.538 60 0 -22.0219 164.642 40 60 977 214 -21.9993 164.708 60 975 -22.1147 165.538 TC 60 9 90
1993360S04171 1994 99 SP MM REWA 1994-01-05 12:00:00 TS -22.0500 165.575 55 980 bom main 23 0 O_____O_O___O_ jtwc_sh SH051994 -22.1000 166.000 55 0 -22.0000 165.100 30 55 980 4.00000 214 -22.0000 165.200 55 980 -22.1000 166.000 TC 55 10 86
1993360S04171 1994 99 SP MM REWA 1994-01-05 15:00:00 TS -21.9953 166.138 main 10 0 P_____P_P___P_ SH051994 -22.0499 166.430 52 0 -21.8658 165.803 30 52 982 241 -22.0155 165.887 52 982 -22.0499 166.430 TC 52 10 83
1993360S04171 1994 99 SP MM REWA 1994-01-05 18:00:00 TS -21.9250 166.625 50 985 bom main 0 0 O_____O_O___O_ jtwc_sh SH051994 -22.0000 166.800 50 0 -21.7000 166.400 30 50 985 3.50000 268 -22.0000 166.500 50 985 -22.0000 166.800 TC 50 7 80
1993360S04171 1994 99 SP MM REWA 1994-01-05 21:00:00 TS -21.8747 166.906 main 22 22 P_____P_P___P_ SH051994 -21.9999 167.122 47 0 -21.5845 166.567 30 50 985 254 -21.9145 166.810 50 985 -21.9999 167.122 TC 47 5 77
1993360S04171 1994 99 SP MM REWA 1994-01-06 00:00:00 TS -21.8250 167.100 50 985 bom main 39 39 O_____O_O___O_ jtwc_sh SH051994 -22.0000 167.400 45 0 -21.5000 166.600 30 50 985 3.50000 241 -21.8000 167.000 50 985 -22.0000 167.400 TC 45 4 75
1993360S04171 1994 99 SP MM REWA 1994-01-06 03:00:00 TS -21.7699 167.334 main 53 53 P_____P_P___P_ SH051994 -21.9724 167.650 42 0 -21.4425 166.785 30 47 987 241 -21.6925 167.250 47 986 -21.9724 167.650 TC 42 5 74
1993360S04171 1994 99 SP MM REWA 1994-01-06 06:00:00 TS -21.7000 167.575 45 990 bom main 83 83 O_____O_O___O_ jtwc_sh SH051994 -21.9000 167.900 40 0 -21.4000 167.000 30 45 990 3.00000 241 -21.6000 167.500 45 987 -21.9000 167.900 TC 40 5 73
1993360S04171 1994 99 SP MM REWA 1994-01-06 09:00:00 TS -21.6226 167.860 main 114 114 P_____P_P___P_ SH051994 -21.7801 168.223 37 0 -21.3575 167.207 30 45 990 241 -21.5726 167.787 42 988 -21.7801 168.223 TC 37 5 68
1993360S04171 1994 99 SP MM REWA 1994-01-06 12:00:00 TS -21.5000 168.100 45 990 bom main 137 137 O_____O_O___O_ jtwc_sh SH051994 -21.6000 168.500 35 0 -21.3000 167.400 30 45 990 3.00000 241 -21.5000 168.000 40 990 -21.6000 168.500 TC 35 5 47
1993360S04171 1994 99 SP MM REWA 1994-01-06 15:00:00 TS -21.3081 168.217 main 159 159 P_____P_P___P_ SH051994 -21.3649 168.637 32 -1 -21.2225 167.557 30 992 -21.2799 168.037 35 993 -21.3649 168.637 TC 32 5 21
1993360S04171 1994 99 SP MM REWA 1994-01-06 18:00:00 TS -21.0750 168.275 995 bom main 182 182 O_____O_O___O_ jtwc_sh SH051994 -21.1000 168.700 30 -1 -21.1000 167.700 30 995 -21.0000 168.000 30 997 -21.1000 168.700 TC 30 5 15
1993360S04171 1994 99 SP MM REWA 1994-01-06 21:00:00 TS -20.8376 168.354 main 212 212 P_____P_P___P_ SH051994 -20.8500 168.780 30 -1 -20.9075 167.858 30 995 -20.7428 168.000 30 997 -20.8500 168.780 TC 30 5 14
1993360S04171 1994 99 SP MM REWA 1994-01-07 00:00:00 TS -20.6000 168.400 995 bom main 228 228 O_____O_O___O_ jtwc_sh SH051994 -20.6000 168.800 30 -1 -20.7000 168.000 30 995 -20.5000 168.000 30 997 -20.6000 168.800 TC 30 5 5
1993360S04171 1994 99 SP MM REWA 1994-01-07 03:00:00 TS -20.3845 168.404 main 245 245 P_____P_P___P_ SH051994 -20.3425 168.730 27 -1 -20.5500 168.115 30 995 -20.3028 168.039 -20.3425 168.730 TC 27 4 356
1993360S04171 1994 99 SP MM REWA 1994-01-07 06:00:00 TS -20.1859 168.375 995 bom main 263 263 O_____O_P___O_ jtwc_sh SH051994 -20.1000 168.600 25 -1 -20.4000 168.200 30 995 -20.1435 168.099 -20.1000 168.600 TC 25 4 349
1993360S04171 1994 99 SP MM REWA 1994-01-07 09:00:00 TS -20.0015 168.334 main 274 274 P_____P_P___P_ SH051994 -19.8925 168.450 25 -1 -20.2075 168.273 30 995 -20.0135 168.162 -19.8925 168.450 TC 25 4 346
1993360S04171 1994 99 SP MM REWA 1994-01-07 12:00:00 TS -19.8260 168.279 995 bom main 290 290 O_____O_P___O_ jtwc_sh SH051994 -19.7000 168.300 25 -1 -20.0000 168.300 30 995 -19.9041 168.215 -19.7000 168.300 TC 25 4 344
1993360S04171 1994 99 SP MM REWA 1994-01-07 15:00:00 TS -19.6441 168.232 main 300 300 P_____P_P___P_ SH051994 -19.4924 168.208 25 -1 -19.7850 168.272 30 995 -19.8066 168.240 -19.4924 168.208 TC 25 4 341
1993360S04171 1994 99 SP MM REWA 1994-01-07 18:00:00 TS -19.4781 168.156 995 bom main 309 303 O_____O_P___O_ jtwc_sh SH051994 -19.3000 168.100 25 -1 -19.6000 168.200 30 995 -19.7126 168.223 -19.3000 168.100 TC 25 4 327
1993360S04171 1994 99 SP MM REWA 1994-01-07 21:00:00 TS -19.3458 168.033 main 302 291 P_____P_P___P_ SH051994 -19.1350 167.923 25 -1 -19.4999 168.138 30 995 -19.6133 168.149 -19.1350 167.923 TC 25 4 311
1993360S04171 1994 99 SP MM REWA 1994-01-08 00:00:00 TS -19.2250 167.850 995 bom main 291 279 O_____O_O___O_ jtwc_sh SH051994 -19.0000 167.700 25 -1 -19.4000 168.000 30 995 -19.5000 168.000 25 998 -19.0000 167.700 TC 25 5 302
1993360S04171 1994 99 SP MM REWA 1994-01-08 03:00:00 TS -19.0903 167.603 main 279 268 P_____P_P___P_ SH051994 -18.9000 167.465 22 -1 -19.2150 167.745 30 995 -19.3462 167.736 -18.9000 167.465 TC 22 6 298
1993360S04171 1994 99 SP MM REWA 1994-01-08 06:00:00 TS -18.9457 167.300 995 bom main 258 249 O_____O_P___O_ jtwc_sh SH051994 -18.8000 167.200 20 -1 -19.0000 167.400 30 995 -19.1829 167.401 -18.8000 167.200 TC 20 7 297
1993360S04171 1994 99 SP MM REWA 1994-01-08 09:00:00 TS -18.7756 166.963 main 251 239 P_____P_P___P_ SH051994 -18.6499 166.922 20 -1 -18.7926 167.000 30 997 -19.0100 167.008 -18.6499 166.922 TC 20 8 297
1993360S04171 1994 99 SP MM REWA 1994-01-08 12:00:00 TS -18.6068 166.592 1000 bom main 243 242 O_____O_P___O_ jtwc_sh SH051994 -18.5000 166.600 20 -1 -18.6000 166.600 30 1000 -18.8273 166.568 -18.5000 166.600 TC 20 8 294
1993360S04171 1994 99 SP MM REWA 1994-01-08 15:00:00 TS -18.4655 166.214 main 253 250 P_____P_P___P_ SH051994 -18.3925 166.223 20 -1 -18.4422 166.315 30 1000 -18.6349 166.095 -18.3925 166.223 TC 20 8 290
1993360S04171 1994 99 SP MM REWA 1994-01-08 18:00:00 TS -18.3332 165.800 1000 bom main 262 247 O_____O_P___O_ jtwc_sh SH051994 -18.3000 165.800 20 -1 -18.3000 166.000 30 1000 -18.4327 165.602 -18.3000 165.800 TC 20 9 287
1993360S04171 1994 99 SP MM REWA 1994-01-08 21:00:00 TS -18.2059 165.330 main 249 243 P_____P_P___P_ SH051994 -18.2224 165.358 20 -1 -18.1577 165.508 30 1000 -18.2210 165.099 -18.2224 165.358 TC 20 9 287
1993360S04171 1994 99 SP MM REWA 1994-01-09 00:00:00 TS -18.0500 164.850 1000 bom main 260 251 O_____O_O___O_ jtwc_sh SH051994 -18.1000 164.900 20 -1 -18.0000 165.000 30 1000 -18.0000 164.600 25 1002 -18.1000 164.900 TC 20 9 293
1993360S04171 1994 99 SP MM REWA 1994-01-09 03:00:00 TS -17.8362 164.429 main 270 269 P_____P_P___P_ SH051994 -17.8873 164.458 20 -1 -17.8222 164.643 30 1000 -17.7479 164.157 -17.8873 164.458 TC 20 9 301
1993360S04171 1994 99 SP MM REWA 1994-01-09 06:00:00 TS -17.5706 164.002 1000 bom main 291 291 O_____O_P___O_ jtwc_sh SH051994 -17.6000 164.000 20 -1 -17.6000 164.300 30 1000 -17.4824 163.709 -17.6000 164.000 TC 20 10 304
1993360S04171 1994 99 SP MM REWA 1994-01-09 09:00:00 TS -17.2601 163.536 main 330 330 P_____P_P___P_ SH051994 -17.2649 163.508 20 -1 -17.2999 163.872 30 1000 -17.2105 163.258 -17.2649 163.508 TC 20 11 305
1993360S04171 1994 99 SP MM REWA 1994-01-09 12:00:00 TS -16.9348 163.051 1000 bom main 383 383 O_____O_P___O_ jtwc_sh SH051994 -16.9000 163.000 20 -1 -17.0000 163.400 30 1000 -16.9391 162.805 -16.9000 163.000 TC 20 11 304
1993360S04171 1994 99 SP MM REWA 1994-01-09 15:00:00 TS -16.6362 162.573 main 432 432 P_____P_P___P_ SH051994 -16.5349 162.500 22 -1 -16.7997 162.938 30 1000 -16.6753 162.352 -16.5349 162.500 TC 22 11 302
1993360S04171 1994 99 SP MM REWA 1994-01-09 18:00:00 TS -16.3565 162.075 1000 bom main 474 474 O_____O_P___O_ jtwc_sh SH051994 -16.2000 162.000 25 -1 -16.6000 162.400 30 1000 -16.4261 161.899 -16.2000 162.000 TC 25 12 299
1993360S04171 1994 99 SP MM REWA 1994-01-09 21:00:00 TS -16.0754 161.507 main 534 534 P_____P_P___P_ SH051994 -15.9124 161.500 25 -1 -16.2783 161.579 30 1000 -16.1987 161.448 -15.9124 161.500 TC 25 12 296
1993360S04171 1994 99 SP MM REWA 1994-01-10 00:00:00 TS -15.8500 161.000 1000 bom main 566 559 O_____O_O___O_ jtwc_sh SH051994 -15.7000 161.000 25 -1 -16.0000 161.000 30 1000 -16.0000 161.000 25 1002 -15.7000 161.000 TC 25 8 295
1993360S04171 1994 99 SP MM REWA 1994-01-10 03:00:00 TS -15.7274 160.730 main 561 561 P_____P_P___P_ SH051994 -15.5623 160.508 25 -1 -15.9348 161.308 30 1000 -15.8502 160.599 -15.5623 160.508 TC 25 6 290
1993360S04171 1994 99 SP MM REWA 1994-01-10 06:00:00 TS -15.6570 160.451 1000 bom main 566 558 O_____O_P___O_ jtwc_sh SH051994 -15.5000 160.000 25 -1 -15.9000 161.600 30 1000 -15.7280 160.204 -15.5000 160.000 TC 25 8 280
1993360S04171 1994 99 SP EA REWA 1994-01-10 09:00:00 TS -15.5861 159.921 main 575 575 P_____P_P___P_ SH051994 -15.4925 159.450 25 -1 -15.7308 160.977 30 1000 -15.6287 159.807 -15.4925 159.450 TC 25 11 278
1993360S04171 1994 99 SP EA REWA 1994-01-10 12:00:00 TS -15.5118 159.325 1001 bom main 591 591 O_____O_P___O_ jtwc_sh SH051994 -15.5000 158.900 25 -1 -15.5000 160.100 30 1001 -15.5472 159.400 -15.5000 158.900 TC 25 11 280
1993360S04171 1994 99 SP EA REWA 1994-01-10 15:00:00 TS -15.4032 158.827 main 609 609 P_____P_P___P_ SH051994 -15.4573 158.392 25 -1 -15.2194 159.550 30 1000 -15.4787 158.974 -15.4573 158.392 TC 25 10 282
1993360S04171 1994 99 SP EA REWA 1994-01-10 18:00:00 TS -15.3045 158.330 1000 bom main 630 630 O_____O_P___O_ jtwc_sh SH051994 -15.4000 157.900 25 -1 -15.0000 159.000 30 1000 -15.4181 158.520 -15.4000 157.900 TC 25 10 278
1993360S04171 1994 99 SP EA REWA 1994-01-10 21:00:00 TS -15.2519 157.772 main 653 646 P_____P_P___P_ SH051994 -15.3424 157.392 25 -1 -14.9626 158.273 30 999 -15.3602 158.032 -15.3424 157.392 TC 25 11 274
1993360S04171 1994 99 SP EA REWA 1994-01-11 00:00:00 TS -15.2250 157.200 998 bom main 667 667 O_____O_O___O_ jtwc_sh SH051994 -15.3000 156.900 25 -1 -15.0000 157.500 30 998 -15.3000 157.500 25 1000 -15.3000 156.900 TC 25 11 271
1993360S04171 1994 99 SP EA REWA 1994-01-11 03:00:00 TS -15.2288 156.643 main 697 697 P_____P_P___P_ SH051994 -15.3074 156.443 25 -1 -15.0446 156.800 30 996 -15.2560 156.887 26 999 -15.3074 156.443 TC 25 11 271
1993360S04171 1994 99 SP EA REWA 1994-01-11 06:00:00 TS -15.2013 156.087 995 bom main 725 724 O_____O_P___O_ jtwc_sh SH051994 -15.3000 156.000 25 -1 -15.0000 156.100 30 995 3.00000 187 -15.2053 156.247 27 998 -15.3000 156.000 TC 25 11 277
1993360S04171 1994 99 SP EA REWA 1994-01-11 09:00:00 TS -15.0962 155.496 main 724 670 P_____P_P___P_ SH051994 -15.2450 155.535 25 -1 -14.7677 155.305 30 995 187 -15.1269 155.608 28 997 -15.2450 155.535 TC 25 11 285
1993360S04171 1994 99 SP EA REWA 1994-01-11 12:00:00 TS -14.9000 154.950 995 bom main 670 608 O_____O_O___O_ jtwc_sh SH051994 -15.1000 155.100 25 -1 -14.4000 154.600 30 995 3.00000 187 -15.0000 155.000 30 997 -15.1000 155.100 TC 25 11 296
1993360S04171 1994 99 SP EA REWA 1994-01-11 15:00:00 TS -14.6095 154.479 main 608 555 P_____P_P___P_ SH051994 -14.8375 154.712 25 -1 -13.9422 154.110 30 995 200 -14.8207 154.382 30 997 -14.8375 154.712 TC 25 10 307
1993360S04171 1994 99 SP EA REWA 1994-01-11 18:00:00 TS -14.2726 154.103 995 bom main 555 508 O_____O_P___O_ jtwc_sh SH051994 -14.5000 154.400 25 -1 -13.5000 153.800 30 995 3.00000 214 -14.5902 153.812 30 997 -14.5000 154.400 TC 25 9 315
1993360S04171 1994 99 SP EA REWA 1994-01-11 21:00:00 TS -13.9642 153.818 main 508 469 P_____P_P___P_ SH051994 -14.1574 154.170 25 -1 -13.2274 153.598 30 997 -14.3146 153.335 30 997 -14.1574 154.170 TC 25 8 323
1993360S04171 1994 99 SP EA REWA 1994-01-12 00:00:00 TS -13.6500 153.625 30 1000 bom main 460 429 O_____O_O___O_ jtwc_sh SH051994 -13.8000 154.000 25 -1 -13.0000 153.500 20 30 1000 2.50000 -14.0000 153.000 30 997 -13.8000 154.000 TC 25 7 334
1993360S04171 1994 99 SP EA REWA 1994-01-12 03:00:00 TS -13.3002 153.491 main 429 398 P_____P_P___P_ SH051994 -13.4425 153.835 25 -1 -12.6850 153.428 20 30 1000 -13.6308 152.864 30 997 -13.4425 153.835 TC 25 7 344
1993360S04171 1994 99 SP EA REWA 1994-01-12 06:00:00 TS -12.9581 153.416 30 1000 bom main 398 376 O_____O_P___O_ jtwc_sh SH051994 -13.1000 153.700 25 -1 -12.4000 153.400 20 30 1000 2.50000 -13.2324 152.865 30 997 -13.1000 153.700 TC 25 7 350
1993360S04171 1994 99 SP EA REWA 1994-01-12 09:00:00 TS -12.6601 153.374 main 376 356 P_____P_P___P_ SH051994 -12.7850 153.585 25 -1 -12.2275 153.393 20 30 1001 -12.8428 152.932 30 997 -12.7850 153.585 TC 25 6 353
1993360S04171 1994 99 SP EA REWA 1994-01-12 12:00:00 TS -12.4000 153.350 30 1002 bom main 356 335 O_____O_O___O_ jtwc_sh SH051994 -12.5000 153.500 25 -1 -12.1000 153.400 20 30 1002 2.50000 -12.5000 153.000 30 997 -12.5000 153.500 TC 25 5 354
1993360S04171 1994 99 SP EA REWA 1994-01-12 15:00:00 TS -12.1566 153.315 main 335 324 P_____P_P___P_ SH051994 -12.2275 153.435 27 -1 -11.9500 153.400 20 30 1002 -12.2215 152.992 30 997 -12.2275 153.435 TC 27 5 354
1993360S04171 1994 99 SP EA REWA 1994-01-12 18:00:00 TS -11.9500 153.300 30 1002 bom main 318 314 O_____O_O___O_ jtwc_sh SH051994 -12.0000 153.400 30 -1 -11.8000 153.400 20 30 1002 2.50000 -12.0000 153.000 30 997 -12.0000 153.400 TC 30 4 359
1993360S04171 1994 99 SP EA REWA 1994-01-12 21:00:00 TS -11.7813 153.304 main 314 309 P_____P_P___P_ SH051994 -11.8275 153.378 30 -1 -11.6352 153.420 20 32 998 -11.8350 153.043 32 996 -11.8275 153.378 TC 30 3 0
1993360S04171 1994 99 SP EA REWA 1994-01-13 00:00:00 TS -11.6500 153.325 35 995 bom main 305 301 O_____O_O___O_ jtwc_sh SH051994 -11.7000 153.400 30 -1 -11.5000 153.400 30 35 995 3.00000 -11.7000 153.100 35 995 -11.7000 153.400 TC 30 2 11
1993360S04171 1994 99 SP EA REWA 1994-01-13 03:00:00 TS -11.5357 153.338 main 301 301 P_____P_P___P_ SH051994 -11.5850 153.478 32 -1 -11.4304 153.264 30 44 989 -11.5425 153.135 37 992 -11.5850 153.478 TC 32 2 13
1993360S04171 1994 99 SP EA REWA 1994-01-13 05:00:00 TS -11.4736 153.371 51 985 bom main 311 308 P_____O_P___P_ SH051994 -11.5250 153.556 34 0 -11.4000 153.200 30 51 985 3.50000 268 -11.4443 153.172 39 990 -11.5250 153.556 TC 34 2 30
1993360S04171 1994 99 SP EA REWA 1994-01-13 06:00:00 TS -11.4384 153.402 main 308 308 O_____P_O___O_ jtwc_sh SH051994 -11.5000 153.600 35 0 -11.3538 153.208 30 51 985 265 -11.4000 153.200 40 990 -11.5000 153.600 TC 35 3 49
1993360S04171 1994 99 SP EA REWA 1994-01-13 09:00:00 TS -11.3269 153.541 main 315 315 P_____P_P___P_ SH051994 -11.4275 153.743 35 0 -11.1902 153.344 30 51 985 257 -11.2625 153.335 45 987 -11.4275 153.743 TC 35 4 62
1993360S04171 1994 99 SP EA REWA 1994-01-13 12:00:00 TS -11.2735 153.724 main 337 337 O_____P_O___O_ jtwc_sh SH051994 -11.4000 153.900 35 0 -11.0940 153.596 30 51 985 249 -11.2000 153.500 50 985 -11.4000 153.900 TC 35 4 91
1993360S04171 1994 99 SP EA REWA 1994-01-13 15:00:00 TS -11.3312 153.914 51 985 bom main 358 358 P_____O_P___P_ SH051994 -11.4275 154.057 37 0 -11.2000 153.900 30 51 985 3.50000 241 -11.2700 153.642 50 985 -11.4275 154.057 TC 37 5 127
1993360S04171 1994 99 SP EA REWA 1994-01-13 18:00:00 TS -11.5843 154.137 main 387 387 O_____P_O___O_ jtwc_sh SH051994 -11.5000 154.200 40 0 -11.9373 154.348 30 51 985 252 -11.4000 153.800 50 985 -11.5000 154.200 TC 40 6 139
1993360S04171 1994 99 SP EA REWA 1994-01-13 21:00:00 TS -11.7754 154.309 main 415 415 P_____P_P___P_ SH051994 -11.5925 154.307 42 0 -12.4314 154.615 30 51 985 264 -11.4850 154.008 50 985 -11.5925 154.307 TC 42 4 137
1993360S04171 1994 99 SP EA REWA 1994-01-13 22:00:00 TS -11.7933 154.339 51 985 bom main 415 415 P_____O_P___P_ SH051994 -11.6279 154.339 43 0 -12.4000 154.600 30 51 985 3.50000 268 -11.5176 154.077 50 985 -11.6279 154.339 TC 43 1 50
1993360S04171 1994 99 SP EA REWA 1994-01-14 00:00:00 TS -11.7500 154.350 55 985 bom main 422 422 O_____O_O___O_ jtwc_sh SH051994 -11.7000 154.400 45 0 -12.0000 154.400 30 55 985 4.00000 268 -11.6000 154.200 50 985 -11.7000 154.400 TC 45 1 109
1993360S04171 1994 99 SP EA REWA 1994-01-14 03:00:00 TS -11.8228 154.419 main 425 425 P_____P_P___P_ SH051994 -11.7925 154.500 47 0 -11.8987 154.362 30 57 980 268 -11.8075 154.315 52 982 -11.7925 154.500 TC 47 3 143
1993360S04171 1994 99 SP EA REWA 1994-01-14 06:00:00 TS -11.9750 154.525 60 975 bom main 443 443 O_____O_O___O_ jtwc_sh SH051994 -11.9000 154.600 50 0 -12.1000 154.500 30 60 975 4.00000 268 -12.0000 154.400 55 980 -11.9000 154.600 TC 50 3 142
1993360S04171 1994 99 SP EA REWA 1994-01-14 09:00:00 TS -12.0787 154.625 main 457 457 P_____P_P___P_ SH051994 -12.0500 154.700 52 0 -12.1425 154.600 30 60 975 268 -12.0725 154.500 57 977 -12.0500 154.700 TC 52 3 136
1993360S04171 1994 99 SP EA REWA 1994-01-14 12:00:00 TS -12.1750 154.725 60 975 bom main 471 471 O_____O_O___O_ jtwc_sh SH051994 -12.2000 154.800 55 0 -12.2000 154.700 30 60 975 4.00000 268 -12.1000 154.600 60 975 -12.2000 154.800 TC 55 3 134
1993360S04171 1994 99 SP EA REWA 1994-01-14 15:00:00 TS -12.2550 154.809 main 485 485 P_____P_P___P_ SH051994 -12.3000 154.900 57 0 -12.2925 154.743 30 62 975 268 -12.1275 154.693 62 972 -12.3000 154.900 TC 57 2 135
1993360S04171 1994 99 SP EA REWA 1994-01-14 18:00:00 TS -12.3500 154.900 65 975 bom main 496 500 O_____O_O___O_ jtwc_sh SH051994 -12.4000 155.000 60 0 -12.4000 154.800 40 65 975 4.50000 268 -12.2000 154.800 65 970 -12.4000 155.000 TC 60 3 139
1993360S04171 1994 99 SP EA REWA 1994-01-14 21:00:00 TS -12.4794 155.006 main 514 514 P_____P_P___P_ SH051994 -12.5275 155.085 62 0 -12.4850 154.920 40 67 975 281 -12.3775 154.935 67 967 -12.5275 155.085 TC 62 4 141
1993360S04171 1994 99 SP EA REWA 1994-01-15 00:00:00 TS -12.6500 155.150 70 975 bom main 529 529 O_____O_O___O_ jtwc_sh SH051994 -12.7000 155.200 65 1 -12.6000 155.100 40 70 975 4.50000 295 -12.6000 155.100 70 965 -12.7000 155.200 TC 65 5 137
1993360S04171 1994 99 SP EA REWA 1994-01-15 03:00:00 TS -12.8375 155.351 main 538 538 P_____P_P___P_ SH051994 -12.9200 155.385 67 1 -12.7476 155.350 40 77 967 295 -12.7625 155.285 75 960 -12.9200 155.385 TC 67 6 137
1993360S04171 1994 99 SP EA REWA 1994-01-15 06:00:00 TS -13.1000 155.575 85 960 bom main 558 558 O_____O_O___O_ jtwc_sh SH051994 -13.2000 155.600 70 1 -13.0000 155.600 40 85 960 5.00000 295 -13.0000 155.500 80 955 -13.2000 155.600 TC 70 8 147
1993360S04171 1994 99 SP EA REWA 1994-01-15 09:00:00 TS -13.4719 155.781 main 590 590 P_____P_P___P_ SH051994 -13.5275 155.800 75 1 -13.4125 155.758 40 87 950 295 -13.4201 155.765 85 947 -13.5275 155.800 TC 75 9 154
1993360S04171 1994 99 SP EA REWA 1994-01-15 12:00:00 TS -13.9000 155.975 90 940 bom main 618 618 O_____O_O___O_ jtwc_sh SH051994 -13.9000 156.000 80 1 -13.9000 155.900 40 90 940 5.50000 295 -13.9000 156.000 90 940 -13.9000 156.000 TC 80 9 157
1993360S04171 1994 99 SP EA REWA 1994-01-15 15:00:00 TS -14.3106 156.146 main 644 638 P_____P_P___P_ SH051994 -14.2925 156.200 85 2 -14.3500 156.085 40 92 937 308 -14.3074 156.100 90 940 -14.2925 156.200 TC 85 9 158
1993360S04171 1994 99 SP EA REWA 1994-01-15 18:00:00 TS -14.7250 156.325 95 935 bom main 667 667 O_____O_O___O_ jtwc_sh SH051994 -14.7000 156.400 90 2 -14.8000 156.300 40 95 935 5.50000 322 -14.7000 156.200 90 940 -14.7000 156.400 TC 90 9 155
1993360S04171 1994 99 SP EA REWA 1994-01-15 21:00:00 TS -15.1356 156.541 main 693 693 P_____P_P___P_ SH051994 -15.0925 156.593 95 2 -15.2650 156.543 40 95 932 322 -15.0926 156.435 90 940 -15.0925 156.593 TC 95 9 152
1993360S04171 1994 99 SP EA REWA 1994-01-16 00:00:00 TS -15.5500 156.775 95 930 bom main 716 726 O_____O_O___O_ jtwc_sh SH051994 -15.5000 156.800 100 3 -15.7000 156.800 40 95 930 5.50000 322 -15.5000 156.700 90 940 -15.5000 156.800 TC 100 10 152
1993360S04171 1994 99 SP EA REWA 1994-01-16 03:00:00 TS -15.9731 157.013 main 757 753 P_____P_P___P_ SH051994 -15.9425 157.043 107 3 -16.0575 157.065 40 102 927 322 -15.9499 156.900 92 935 -15.9425 157.043 TC 107 10 152
1993360S04171 1994 99 SP EA REWA 1994-01-16 06:00:00 TS -16.4000 157.250 110 925 bom main 787 787 O_____O_O___O_ jtwc_sh SH051994 -16.4000 157.300 115 4 -16.4000 157.300 40 110 925 6.50000 322 -16.4000 157.100 95 930 -16.4000 157.300 TC 115 10 151
1993360S04171 1994 99 SP EA REWA 1994-01-16 09:00:00 TS -16.8194 157.494 main 789 748 P_____P_P___P_ SH051994 -16.8425 157.580 120 4 -16.7999 157.465 40 110 922 308 -16.7925 157.350 95 930 -16.8425 157.580 TC 120 10 153
1993360S04171 1994 99 SP EA REWA 1994-01-16 12:00:00 TS -17.2500 157.700 110 920 bom main 748 704 O_____O_O___O_ jtwc_sh SH051994 -17.3000 157.800 125 4 -17.2000 157.600 40 110 920 6.50000 295 -17.2000 157.600 95 930 -17.3000 157.800 TC 125 10 158
1993360S04171 1994 99 SP EA REWA 1994-01-16 15:00:00 TS -17.7162 157.874 main 704 682 P_____P_P___P_ SH051994 -17.7999 157.925 122 4 -17.5650 157.795 40 105 920 308 -17.7000 157.852 95 930 -17.7999 157.925 TC 122 10 167
1993360S04171 1994 99 SP EA REWA 1994-01-16 18:00:00 TS -18.1750 157.925 100 920 bom main 682 670 O_____O_O___O_ jtwc_sh SH051994 -18.3000 157.900 120 4 -17.9000 157.900 40 100 920 6.00000 322 -18.2000 158.000 95 930 -18.3000 157.900 TC 120 9 184
1993360S04171 1994 99 SP EA REWA 1994-01-16 21:00:00 TS -18.5956 157.803 main 677 673 P_____P_P___P_ SH051994 -18.7500 157.703 115 4 -18.2149 157.818 40 97 920 308 -18.6673 157.990 95 930 -18.7500 157.703 TC 115 9 204
1993360S04171 1994 99 SP EA REWA 1994-01-17 00:00:00 TS -18.9750 157.550 95 920 bom main 685 693 O_____O_O___O_ jtwc_sh SH051994 -19.2000 157.400 110 3 -18.5000 157.600 40 95 920 5.50000 295 -19.0000 157.800 95 930 -19.2000 157.400 TC 110 9 215
1993360S04171 1994 99 SP EA REWA 1994-01-17 03:00:00 TS -19.3073 157.283 main 709 689 P_____P_P___P_ SH051994 -19.7223 157.137 102 3 -18.7271 157.382 40 92 925 295 -19.0574 157.474 90 937 -19.7223 157.137 TC 102 9 223
1993360S04171 1994 99 SP EA REWA 1994-01-17 06:00:00 TS -19.6250 156.900 90 930 bom main 689 623 O_____O_O___O_ jtwc_sh SH051994 -20.2000 156.800 95 2 -19.0000 157.000 40 90 930 5.50000 295 -19.1000 157.000 85 945 -20.2000 156.800 TC 95 11 232
1993360S04171 1994 99 SP EA REWA 1994-01-17 09:00:00 TS -19.9901 156.365 main 623 564 P_____P_P___P_ SH051994 -20.5525 156.337 87 2 -19.4505 156.346 40 85 937 322 -19.4050 156.438 82 950 -20.5525 156.337 TC 87 13 237
1993360S04171 1994 99 SP EA REWA 1994-01-17 12:00:00 TS -20.3250 155.750 80 945 bom main 564 502 O_____O_O___O_ jtwc_sh SH051994 -20.8000 155.800 80 1 -19.9000 155.600 40 80 945 5.00000 349 -19.8000 155.800 80 955 -20.8000 155.800 TC 80 13 242
1993360S04171 1994 99 SP EA REWA 1994-01-17 15:00:00 TS -20.5855 155.162 main 502 436 P_____P_P___P_ SH051994 -20.9799 155.257 75 1 -20.1947 154.977 40 72 952 281 -20.1873 155.158 77 957 -20.9799 155.257 TC 75 12 248
1993360S04171 1994 99 SP EA REWA 1994-01-17 18:00:00 TS -20.7750 154.575 65 960 bom main 436 375 O_____O_O___O_ jtwc_sh SH051994 -21.1000 154.700 70 1 -20.4000 154.400 40 65 960 4.50000 214 -20.5000 154.500 75 960 -21.1000 154.700 TC 70 12 253
1993360S04171 1994 99 SP EA REWA 1994-01-17 21:00:00 TS -20.9175 153.974 main 375 325 P_____P_P___P_ SH051994 -21.2225 154.135 67 1 -20.5724 153.820 40 67 962 214 -20.6527 153.805 72 962 -21.2225 154.135 TC 67 11 258
1993360S04171 1994 99 SP EA REWA 1994-01-18 00:00:00 TS -21.0000 153.425 70 965 bom main 316 282 O_____O_O___O_ jtwc_sh SH051994 -21.3000 153.600 65 1 -20.7000 153.300 40 70 965 4.50000 214 -20.7000 153.200 70 965 -21.3000 153.600 TC 65 10 262
1993360S04171 1994 99 SP EA REWA 1994-01-18 03:00:00 TS -21.0436 152.966 main 282 242 P_____P_P___P_ SH051994 -21.3224 153.112 62 0 -20.8224 152.855 40 70 965 214 -20.7072 152.782 70 965 -21.3224 153.112 TC 62 8 266
1993360S04171 1994 99 SP EA REWA 1994-01-18 06:00:00 TS -21.0500 152.600 70 965 bom main 250 227 O_____O_O___O_ jtwc_sh SH051994 -21.3000 152.700 60 0 -20.9000 152.500 40 70 965 4.50000 214 -20.7000 152.500 70 965 -21.3000 152.700 TC 60 6 270
1993360S04171 1994 99 SP EA REWA 1994-01-18 09:00:00 TS -21.0449 152.304 main 227 213 P_____P_P___P_ SH051994 -21.2573 152.370 57 0 -20.9149 152.205 40 67 965 200 -20.7499 152.270 70 965 -21.2573 152.370 TC 57 5 273
1993360S04171 1994 99 SP EA REWA 1994-01-18 12:00:00 TS -21.0250 152.075 65 965 bom main 213 199 O_____O_O___O_ jtwc_sh SH051994 -21.2000 152.100 55 0 -20.9000 152.000 40 65 965 4.50000 187 -20.8000 152.100 70 965 -21.2000 152.100 TC 55 4 279
1993360S04171 1994 99 SP EA REWA 1994-01-18 15:00:00 TS -20.9794 151.857 main 199 187 P_____P_P___P_ SH051994 -21.1200 151.805 52 0 -20.8849 151.877 40 62 965 187 -20.7925 151.942 67 967 -21.1200 151.805 TC 52 4 278
1993360S04171 1994 99 SP EA REWA 1994-01-18 18:00:00 TS -20.9750 151.700 60 965 bom main 187 182 O_____O_O___O_ jtwc_sh SH051994 -21.1000 151.600 50 0 -20.9000 151.800 30 60 965 4.00000 187 -20.8000 151.800 65 970 -21.1000 151.600 TC 50 3 256
1993360S04171 1994 99 SP EA REWA 1994-01-18 21:00:00 TS -21.0400 151.591 main 182 163 P_____P_P___P_ SH051994 -21.2049 151.555 50 0 -20.9325 151.655 30 60 970 173 -20.8175 151.598 62 972 -21.2049 151.555 TC 50 3 205
1993360S04171 1994 99 SP EA REWA 1994-01-19 00:00:00 TS -21.2250 151.575 60 975 bom main 163 136 O_____O_O___O_ jtwc_sh SH051994 -21.4000 151.600 50 0 -21.1000 151.600 30 60 975 4.00000 160 -21.0000 151.500 60 975 -21.4000 151.600 TC 50 5 171
1993360S04171 1994 99 SP EA REWA 1994-01-19 03:00:00 TS -21.5794 151.681 main 136 117 P_____P_P___P_ SH051994 -21.6350 151.635 47 0 -21.5201 151.777 30 60 975 146 -21.5276 151.677 60 975 -21.6350 151.635 TC 47 8 163
1993360S04171 1994 99 SP EA REWA 1994-01-19 06:00:00 TS -21.9750 151.825 60 975 bom main 117 117 O_____O_O___O_ jtwc_sh SH051994 -21.9000 151.700 45 0 -22.0000 152.000 30 60 975 4.00000 133 -22.1000 151.900 60 975 -21.9000 151.700 TC 45 7 164
1993360S04171 1994 99 SP EA REWA 1994-01-19 09:00:00 TS -22.2637 151.893 main 115 112 P_____P_P___P_ SH051994 -22.1500 151.785 45 0 -22.3450 152.080 30 60 975 119 -22.4099 151.923 60 975 -22.1500 151.785 TC 45 5 167
1993360S04171 1994 99 SP EA REWA 1994-01-19 12:00:00 TS -22.5000 151.950 60 975 bom main 123 123 O_____O_O___O_ jtwc_sh SH051994 -22.4000 151.900 45 0 -22.6000 152.100 30 60 975 4.00000 106 -22.6000 151.900 60 975 -22.4000 151.900 TC 45 4 168
1993360S04171 1994 99 SP EA REWA 1994-01-19 15:00:00 TS -22.6905 152.002 main 123 122 P_____P_P___P_ SH051994 -22.6425 152.028 42 0 -22.7424 152.063 30 57 977 106 -22.7348 151.890 57 977 -22.6425 152.028 TC 42 4 158
1993360S04171 1994 99 SP EA REWA 1994-01-19 18:00:00 TS -22.9000 152.125 55 980 bom main 133 112 O_____O_O___O_ jtwc_sh SH051994 -22.9000 152.200 40 0 -22.9000 152.100 30 55 980 4.00000 106 -22.9000 152.000 55 980 -22.9000 152.200 TC 40 6 146
1993360S04171 1994 99 SP EA REWA 1994-01-19 21:00:00 TS -23.2063 152.384 main 117 105 P_____P_P___P_ SH051994 -23.1849 152.420 40 0 -23.2275 152.340 30 55 980 106 -23.2277 152.355 55 980 -23.1849 152.420 TC 40 9 140
1993360S04171 1994 99 SP EA REWA 1994-01-20 00:00:00 TS -23.5500 152.725 55 980 bom main 112 101 O_____O_O___O_ jtwc_sh SH051994 -23.5000 152.700 40 0 -23.6000 152.700 30 55 980 4.00000 106 -23.6000 152.800 55 980 -23.5000 152.700 TC 40 9 137
1993360S04171 1994 99 SP EA REWA 1994-01-20 03:00:00 TS -23.8786 153.067 main 100 67 P_____P_P___P_ SH051994 -23.8424 153.020 40 0 -23.9224 153.078 30 55 980 92 -23.9073 153.150 55 980 -23.8424 153.020 TC 40 9 134
1993360S04171 1994 99 SP EA REWA 1994-01-20 06:00:00 TS -24.2000 153.450 55 980 bom main 70 59 O_____O_O___O_ jtwc_sh SH051994 -24.2000 153.400 40 0 -24.2000 153.500 30 55 980 4.00000 79 -24.2000 153.500 55 980 -24.2000 153.400 TC 40 10 130
1993360S04171 1994 99 SP EA REWA 1994-01-20 09:00:00 TS -24.4981 153.880 main 69 69 P_____P_P___P_ SH051994 -24.5425 153.835 40 0 -24.4001 153.958 30 52 980 79 -24.5075 153.893 52 982 -24.5425 153.835 TC 40 10 127
1993360S04171 1994 99 SP EA REWA 1994-01-20 12:00:00 TS -24.8000 154.325 50 980 bom main 93 93 O_____O_O___O_ jtwc_sh SH051994 -24.9000 154.300 40 0 -24.6000 154.400 30 50 980 3.50000 79 -24.8000 154.300 50 985 -24.9000 154.300 TC 40 10 128
1993360S04171 1994 99 SP EA REWA 1994-01-20 15:00:00 TS -25.1054 154.732 main 131 131 P_____P_P___P_ SH051994 -25.2848 154.743 37 0 -24.8474 154.773 30 47 982 92 -25.0046 154.671 47 986 -25.2848 154.743 TC 37 10 132
1993360S04171 1994 99 SP EA REWA 1994-01-20 18:00:00 TS -25.4750 155.150 45 985 bom main 189 179 O_____O_O___O_ jtwc_sh SH051994 -25.7000 155.200 35 0 -25.2000 155.100 30 45 985 3.00000 106 -25.3000 155.100 45 987 -25.7000 155.200 TC 35 12 138
1993360S04171 1994 99 SP EA REWA 1994-01-20 21:00:00 TS -25.9723 155.601 main 246 246 P_____P_P___P_ SH051994 -26.1423 155.685 35 0 -25.7419 155.355 30 45 985 106 -25.8627 155.677 42 988 -26.1423 155.685 TC 35 13 140
1993360S04171 1994 99 SP EA REWA 1994-01-21 00:00:00 TS -26.5000 156.100 45 985 bom main 295 295 O_____O_O___O_ jtwc_sh SH051994 -26.6000 156.200 35 0 -26.3000 155.700 30 45 985 2.50000 106 -26.5000 156.300 40 990 -26.6000 156.200 TC 35 14 136
1993360S04171 1994 99 SP EA REWA 1994-01-21 03:00:00 TS -26.9523 156.655 main 333 333 P_____P_P___P_ SH051994 -27.0420 156.713 35 0 -26.6956 156.327 30 42 987 92 -27.0298 156.865 37 992 -27.0420 156.713 TC 35 14 130
1993360S04171 1994 99 SP EA REWA 1994-01-21 06:00:00 TS -27.3750 157.250 40 990 bom main 374 374 O_____O_O___O_ jtwc_sh SH051994 -27.5000 157.300 35 0 -27.0000 157.000 51 40 990 2.00000 79 -27.5000 157.400 35 995 -27.5000 157.300 TC 35 13 128
1993360S04171 1994 99 SP EA REWA 1994-01-21 09:00:00 TS -27.7699 157.830 main 414 414 P_____P_P___P_ SH051994 -27.9841 157.969 32 -1 -27.2270 157.481 51 35 -27.8847 157.901 32 996 -27.9841 157.969 TC 32 14 128
1993360S04171 1994 99 SP EA REWA 1994-01-21 12:00:00 TS -28.2077 158.469 30 bom main 479 479 O_____O_O___O_ jtwc_sh SH051994 -28.5000 158.800 30 -1 -27.5000 157.900 50 30 1.50000 -28.3000 158.400 30 997 -28.5000 158.800 TC 30 15 128
1993360S04171 1994 99 SP EA REWA 1994-01-21 15:00:00 TS -28.6768 159.158 main 545 545 P_____P_P___P_ SH051994 -29.0450 159.837 30 -1 -27.9455 158.339 50 27 -28.6743 158.889 30 997 -29.0450 159.837 TC 30 17 135
1993360S04171 1994 99 SP EA REWA 1994-01-21 18:00:00 TS -29.3857 159.829 25 bom main 603 603 O_____O_O___O_ jtwc_sh SH051994 -29.6000 161.000 30 -1 -28.5000 158.800 50 25 -29.5000 159.500 30 997 -29.6000 161.000 TC 30 27 156
1993360S04171 1994 99 SP MM REWA 1994-01-21 21:00:00 NR -31.1774 160.444 main 693 693 ________P_____ SH051994 -1 50 -31.1774 160.444 30 997 TC 42 161
1993360S04171 1994 99 SP MM REWA 1994-01-22 00:00:00 NR -33.3000 161.400 30 997 wellington main 817 817 ________O_____ -1 -33.3000 161.400 30 997 47 164
1993360S04171 1994 99 SP MM REWA 1994-01-22 03:00:00 NR -35.6381 162.010 main 943 889 ________P_____ -1 -35.6381 162.010 30 997 43 168
1993360S04171 1994 99 SP MM REWA 1994-01-22 06:00:00 NR -37.5000 162.500 30 997 wellington main 880 800 ________O_____ -1 -37.5000 162.500 30 997 26 161
1993360S04171 1994 99 SP MM REWA 1994-01-22 09:00:00 NR -38.0879 163.064 main 795 774 ________P_____ -1 -38.0879 163.064 30 997 11 125
1993360S04171 1994 99 SP MM REWA 1994-01-22 12:00:00 NR -38.1000 163.600 30 997 wellington main 774 724 ________O_____ -1 -38.1000 163.600 30 997 9 114
1993360S04171 1994 99 SP MM REWA 1994-01-22 15:00:00 NR -38.4389 164.075 main 724 668 ________P_____ -1 -38.4389 164.075 30 997 10 134
1993360S04171 1994 99 SP MM REWA 1994-01-22 18:00:00 NR -38.7972 164.522 main 668 619 ________P_____ -1 -38.7972 164.522 30 997 10 135
1993360S04171 1994 99 SP MM REWA 1994-01-22 21:00:00 NR -39.1571 164.982 main 609 558 ________P_____ -1 -39.1571 164.982 30 997 10 133
1993360S04171 1994 99 SP MM REWA 1994-01-23 00:00:00 NR -39.5000 165.500 30 997 wellington main 558 503 ________O_____ -1 -39.5000 165.500 30 997 11 127
1993360S04171 1994 99 SP MM REWA 1994-01-23 03:00:00 NR -39.8115 166.106 main 503 444 ________P_____ -1 -39.8115 166.106 30 997 11 121
1993360S04171 1994 99 SP MM REWA 1994-01-23 06:00:00 NR -40.1001 166.778 main 436 373 ________P_____ -1 -40.1001 166.778 30 997 12 117
1993360S04171 1994 99 SP MM REWA 1994-01-23 09:00:00 NR -40.3637 167.511 main 368 298 ________P_____ -1 -40.3637 167.511 30 997 13 113
1993360S04171 1994 99 SP MM REWA 1994-01-23 12:00:00 NR -40.6000 168.300 30 997 wellington main 298 228 ________O_____ -1 -40.6000 168.300 30 997 13 110
1993360S04171 1994 99 SP MM REWA 1994-01-23 15:00:00 NR -40.8091 169.136 main 228 153 ________P_____ -1 -40.8091 169.136 30 997 13 107
1993360S04171 1994 99 SP MM REWA 1994-01-23 18:00:00 NR -41.0000 170.000 30 997 wellington main 153 ________O_____ -1 -41.0000 170.000 30 997 14 106

デジタル台風データ・検索

IBTrACS Databaseについて

本データベースは、米国NOAAが公開する1842年以降の世界の熱帯低気圧のベストトラックデータアーカイブInternational Best Track Archive for Climate Stewardship (IBTrACS)を、ウェブで閲覧しやすい形式に変換したものです。

最終更新日:2021-10-08